Time;durP1;ratioP1;P1;durP2;ratioP2;P2;SDS_P1;SDS_P2;PMS_P1;PMS_P2;Temp;Humidity;BMP_temperature;BMP_pressure;BME280_temperature;BME280_humidity;BME280_pressure;Samples;Min_cycle;Max_cycle;Signal;HPM_P1;HPM_P2
2021/11/18 00:00:57;;;;;;;17.50;7.32;;;8.20;86.80;;;;;;5092047;28;20498;-69
2021/11/18 00:03:24;;;;;;;22.90;8.20;;;8.20;86.80;;;;;;5089548;28;20111;-69
2021/11/18 00:05:51;;;;;;;15.90;7.32;;;8.20;86.80;;;;;;5089169;28;20034;-69
2021/11/18 00:08:17;;;;;;;20.10;7.50;;;8.20;86.80;;;;;;5089254;28;20028;-68
2021/11/18 00:11:11;;;;;;;15.75;6.97;;;8.10;86.80;;;;;;5089168;28;20024;-68
2021/11/18 00:13:41;;;;;;;16.45;7.40;;;8.10;86.90;;;;;;5083758;28;20097;-69
2021/11/18 00:16:07;;;;;;;19.83;7.63;;;8.10;86.80;;;;;;5068155;28;20027;-68
2021/11/18 00:18:36;;;;;;;17.95;7.65;;;8.10;87.40;;;;;;5052270;28;20111;-69
2021/11/18 00:21:12;;;;;;;21.20;8.60;;;8.10;86.80;;;;;;5073144;28;20115;-69
2021/11/18 00:23:42;;;;;;;18.00;7.18;;;8.10;86.90;;;;;;5074823;28;20043;-69
2021/11/18 00:26:09;;;;;;;18.45;7.60;;;8.10;86.90;;;;;;5072367;28;20020;-69
2021/11/18 00:28:35;;;;;;;14.05;6.90;;;8.00;87.00;;;;;;5068601;28;20031;-69
2021/11/18 00:31:03;;;;;;;16.02;6.47;;;8.00;87.10;;;;;;5068640;28;20070;-69
2021/11/18 00:33:29;;;;;;;17.45;6.97;;;8.00;87.20;;;;;;5053612;28;20079;-69
2021/11/18 00:35:55;;;;;;;16.38;7.03;;;8.00;87.30;;;;;;5049909;28;20060;-68
2021/11/18 00:38:21;;;;;;;16.35;7.50;;;8.00;87.40;;;;;;5066894;28;20044;-68
2021/11/18 00:40:50;;;;;;;19.45;7.20;;;8.00;87.40;;;;;;5068896;28;20060;-68
2021/11/18 00:43:18;;;;;;;19.42;7.05;;;8.00;87.40;;;;;;5068335;28;20033;-68
2021/11/18 00:45:45;;;;;;;15.50;7.65;;;8.00;87.40;;;;;;5067144;28;20107;-68
2021/11/18 00:48:12;;;;;;;21.70;7.95;;;8.00;87.40;;;;;;5068534;28;20124;-68
2021/11/18 00:50:42;;;;;;;17.45;7.53;;;7.90;87.40;;;;;;5073107;28;20106;-68
2021/11/18 00:53:08;;;;;;;19.27;7.20;;;8.00;87.50;;;;;;5072620;28;20024;-69
2021/11/18 00:55:34;;;;;;;15.68;7.25;;;7.90;87.40;;;;;;5066922;28;20029;-69
2021/11/18 00:57:59;;;;;;;21.23;8.45;;;7.90;87.50;;;;;;5068377;28;20059;-69
2021/11/18 01:00:32;;;;;;;15.77;6.68;;;7.90;87.60;;;;;;5069777;28;20094;-69
2021/11/18 01:03:01;;;;;;;16.50;7.38;;;7.90;87.60;;;;;;5071849;28;20449;-69
2021/11/18 01:05:30;;;;;;;17.23;7.28;;;7.90;87.60;;;;;;5061070;28;20123;-69
2021/11/18 01:07:57;;;;;;;21.20;7.55;;;7.80;87.50;;;;;;5067335;28;20028;-69
2021/11/18 01:10:25;;;;;;;19.17;6.90;;;7.90;87.50;;;;;;5068306;28;20025;-69
2021/11/18 01:12:52;;;;;;;14.05;6.45;;;7.80;87.50;;;;;;5068336;28;20024;-69
2021/11/18 01:15:22;;;;;;;21.17;7.25;;;7.80;87.50;;;;;;5081226;28;20387;-69
2021/11/18 01:17:48;;;;;;;17.20;6.68;;;7.80;87.60;;;;;;5066743;28;20028;-68
2021/11/18 01:20:15;;;;;;;14.98;6.60;;;7.80;87.60;;;;;;5087662;28;20565;-69
2021/11/18 01:22:42;;;;;;;25.52;9.10;;;7.80;87.70;;;;;;5081376;28;20032;-71
2021/11/18 01:25:09;;;;;;;17.40;7.82;;;7.80;87.70;;;;;;5065737;28;20035;-72
2021/11/18 01:27:35;;;;;;;17.55;6.88;;;7.80;88.30;;;;;;5085352;28;20510;-71
2021/11/18 01:30:03;;;;;;;19.20;7.32;;;7.80;87.70;;;;;;5069010;28;20098;-71
2021/11/18 01:32:29;;;;;;;14.85;7.20;;;7.80;87.80;;;;;;5063120;28;20753;-71
2021/11/18 01:34:55;;;;;;;18.15;6.95;;;7.80;87.70;;;;;;5060242;28;20111;-70
2021/11/18 01:37:20;;;;;;;19.33;8.05;;;7.80;87.70;;;;;;5048488;28;20081;-70
2021/11/18 01:39:46;;;;;;;14.38;6.70;;;7.80;87.70;;;;;;5080773;28;20115;-72
2021/11/18 01:42:12;;;;;;;22.02;7.28;;;7.80;87.70;;;;;;5085943;28;20039;-72
2021/11/18 01:44:41;;;;;;;17.92;7.68;;;7.80;87.70;;;;;;5085310;28;20027;-72
2021/11/18 01:47:11;;;;;;;19.60;7.50;;;7.80;87.70;;;;;;5085075;28;20032;-72
2021/11/18 01:49:39;;;;;;;18.63;8.25;;;7.80;87.90;;;;;;5082944;28;20032;-72
2021/11/18 01:52:06;;;;;;;21.45;8.05;;;7.80;87.90;;;;;;5069261;28;20494;-72
2021/11/18 01:54:36;;;;;;;21.58;7.57;;;7.80;87.90;;;;;;5085913;28;20386;-72
2021/11/18 01:57:06;;;;;;;21.85;7.50;;;7.70;88.00;;;;;;5085170;28;20031;-71
2021/11/18 01:59:34;;;;;;;17.98;7.65;;;7.70;88.10;;;;;;5082128;28;20192;-72
2021/11/18 02:02:00;;;;;;;17.98;7.55;;;7.70;88.20;;;;;;5087462;28;20591;-71
2021/11/18 02:04:29;;;;;;;23.42;9.00;;;7.70;88.10;;;;;;5086099;28;20110;-71
2021/11/18 02:06:59;;;;;;;19.60;8.00;;;7.70;88.10;;;;;;5081707;28;20474;-71
2021/11/18 02:09:27;;;;;;;24.23;8.48;;;7.70;88.10;;;;;;5086019;28;20035;-71
2021/11/18 02:12:02;;;;;;;19.80;8.20;;;7.70;88.20;;;;;;5061668;28;20103;-70
2021/11/18 02:14:28;;;;;;;23.50;8.50;;;7.70;88.20;;;;;;5095778;28;20075;-70
2021/11/18 02:16:56;;;;;;;15.80;7.65;;;7.70;88.20;;;;;;5096855;28;20410;-70
2021/11/18 02:19:23;;;;;;;19.30;7.65;;;7.70;88.30;;;;;;5087395;28;20383;-70
2021/11/18 02:21:51;;;;;;;22.17;8.63;;;7.70;88.20;;;;;;5069767;28;20586;-70
2021/11/18 02:24:29;;;;;;;20.08;8.63;;;7.70;88.10;;;;;;5093095;28;20028;-70
2021/11/18 02:26:56;;;;;;;19.42;8.40;;;7.70;88.10;;;;;;5068699;28;20398;-70
2021/11/18 02:29:23;;;;;;;24.85;9.88;;;7.70;88.10;;;;;;5093069;28;20069;-70
2021/11/18 02:31:51;;;;;;;23.02;9.38;;;7.70;88.10;;;;;;5087861;28;20028;-70
2021/11/18 02:34:20;;;;;;;17.02;8.02;;;7.60;88.20;;;;;;5069223;28;20480;-70
2021/11/18 02:36:46;;;;;;;22.88;9.80;;;7.60;88.20;;;;;;5071709;28;20243;-70
2021/11/18 02:39:12;;;;;;;18.38;8.52;;;7.60;88.30;;;;;;5092403;28;20444;-70
2021/11/18 02:41:39;;;;;;;19.98;9.13;;;7.60;88.30;;;;;;5111912;28;20402;-71
2021/11/18 02:44:06;;;;;;;21.00;9.13;;;7.60;88.30;;;;;;5111808;28;20024;-72
2021/11/18 02:46:33;;;;;;;26.08;10.73;;;7.60;88.30;;;;;;5096917;28;20121;-72
2021/11/18 02:48:59;;;;;;;23.10;10.05;;;7.60;88.40;;;;;;5091251;28;20142;-72
2021/11/18 02:51:26;;;;;;;25.50;10.25;;;7.60;88.50;;;;;;5110725;28;20042;-68
2021/11/18 02:53:52;;;;;;;20.67;9.57;;;7.60;88.70;;;;;;5111068;28;20111;-68
2021/11/18 02:56:19;;;;;;;21.00;9.70;;;7.60;88.60;;;;;;5110814;28;20062;-68
2021/11/18 02:58:46;;;;;;;20.45;9.70;;;7.60;88.80;;;;;;5106820;28;20024;-68
2021/11/18 03:01:38;;;;;;;24.77;10.13;;;7.60;88.90;;;;;;5085582;28;20054;-68
2021/11/18 03:04:04;;;;;;;23.05;10.18;;;7.60;88.90;;;;;;5090403;28;20036;-68
2021/11/18 03:06:30;;;;;;;27.02;10.20;;;7.60;89.00;;;;;;5097105;28;20136;-68
2021/11/18 03:08:56;;;;;;;23.90;11.20;;;7.60;89.10;;;;;;5089931;28;20381;-68
2021/11/18 03:11:24;;;;;;;28.02;10.63;;;7.70;89.20;;;;;;5087178;28;20020;-67
2021/11/18 03:13:50;;;;;;;28.05;10.35;;;7.60;89.20;;;;;;5076404;28;20126;-68
2021/11/18 03:16:17;;;;;;;22.25;9.90;;;7.70;89.30;;;;;;5081036;28;20143;-68
2021/11/18 03:18:43;;;;;;;20.20;10.27;;;7.70;89.50;;;;;;5090493;28;20063;-68
2021/11/18 03:21:13;;;;;;;26.25;10.63;;;7.70;89.50;;;;;;5087449;28;20489;-68
2021/11/18 03:23:39;;;;;;;25.33;10.00;;;7.70;89.50;;;;;;5089331;28;20024;-68
2021/11/18 03:26:05;;;;;;;22.27;10.48;;;7.70;89.60;;;;;;5088842;28;20028;-68
2021/11/18 03:28:34;;;;;;;24.23;10.85;;;7.70;89.60;;;;;;5090234;28;20750;-68
2021/11/18 03:31:01;;;;;;;26.45;11.00;;;7.70;89.70;;;;;;5089481;28;20034;-68
2021/11/18 03:33:34;;;;;;;26.52;9.95;;;7.70;89.70;;;;;;5090189;28;20020;-68
2021/11/18 03:36:00;;;;;;;22.80;9.88;;;7.70;89.70;;;;;;5089248;28;20530;-68
2021/11/18 03:38:28;;;;;;;26.00;9.75;;;7.80;89.70;;;;;;5090240;28;20043;-68
2021/11/18 03:41:02;;;;;;;21.65;10.32;;;7.80;89.70;;;;;;5089646;28;20059;-68
2021/11/18 03:43:28;;;;;;;21.15;9.50;;;7.80;89.70;;;;;;5090314;28;20020;-68
2021/11/18 03:45:54;;;;;;;25.00;11.35;;;7.80;89.80;;;;;;5089185;28;20028;-68
2021/11/18 03:48:20;;;;;;;29.63;10.50;;;7.80;89.80;;;;;;5089084;28;20490;-68
2021/11/18 03:50:47;;;;;;;22.48;9.93;;;7.80;89.80;;;;;;5072047;28;20086;-68
2021/11/18 03:53:14;;;;;;;24.95;10.07;;;7.80;89.80;;;;;;5089486;28;20583;-68
2021/11/18 03:55:41;;;;;;;24.83;10.90;;;7.90;89.90;;;;;;5070957;28;20542;-69
2021/11/18 03:58:07;;;;;;;24.73;11.40;;;7.80;89.90;;;;;;5069751;28;20351;-68
2021/11/18 04:00:35;;;;;;;25.35;10.05;;;7.90;90.00;;;;;;5097277;28;20034;-68
2021/11/18 04:03:02;;;;;;;23.17;9.75;;;7.90;90.00;;;;;;5071373;28;20347;-71
2021/11/18 04:05:29;;;;;;;23.45;11.05;;;7.90;90.00;;;;;;5088886;28;20028;-71
2021/11/18 04:07:54;;;;;;;24.05;9.93;;;7.90;90.00;;;;;;5088935;28;20514;-71
2021/11/18 04:10:24;;;;;;;29.95;11.73;;;7.90;90.00;;;;;;5070393;28;20028;-71
2021/11/18 04:12:50;;;;;;;21.92;10.10;;;7.90;90.00;;;;;;5107330;28;20485;-71
2021/11/18 04:15:17;;;;;;;17.13;8.35;;;7.90;90.00;;;;;;5089559;28;20408;-71
2021/11/18 04:17:43;;;;;;;30.42;10.43;;;7.90;90.00;;;;;;5068899;28;20362;-71
2021/11/18 04:20:11;;;;;;;27.45;10.68;;;7.90;90.00;;;;;;5069704;28;20135;-71
2021/11/18 04:22:37;;;;;;;20.55;10.23;;;7.90;90.00;;;;;;5088484;28;20497;-71
2021/11/18 04:25:06;;;;;;;39.72;11.75;;;8.00;90.00;;;;;;5084554;28;20024;-71
2021/11/18 04:27:32;;;;;;;25.48;10.43;;;8.00;90.00;;;;;;5085657;28;20036;-71
2021/11/18 04:29:58;;;;;;;32.22;11.60;;;8.00;90.00;;;;;;5081838;28;20040;-71
2021/11/18 04:32:25;;;;;;;28.13;11.45;;;8.00;90.00;;;;;;5082460;28;20375;-71
2021/11/18 04:34:51;;;;;;;22.75;9.95;;;8.00;90.00;;;;;;5082612;28;20020;-72
2021/11/18 04:37:18;;;;;;;25.13;9.98;;;8.00;90.00;;;;;;5070559;28;20043;-71
2021/11/18 04:39:44;;;;;;;30.90;11.00;;;8.00;90.00;;;;;;5089089;28;20036;-69
2021/11/18 04:42:11;;;;;;;22.02;9.25;;;8.00;90.00;;;;;;5085346;28;20094;-69
2021/11/18 04:44:37;;;;;;;32.00;12.07;;;8.00;90.00;;;;;;5067769;28;20028;-68
2021/11/18 04:47:09;;;;;;;33.72;10.40;;;8.00;90.10;;;;;;5067342;28;20509;-68
2021/11/18 04:49:36;;;;;;;28.52;10.20;;;8.00;90.10;;;;;;5070777;28;20024;-68
2021/11/18 04:52:03;;;;;;;22.02;10.23;;;8.00;90.10;;;;;;5084848;28;20471;-68
2021/11/18 04:54:29;;;;;;;29.45;11.57;;;8.00;90.10;;;;;;5081578;28;20032;-68
2021/11/18 04:56:55;;;;;;;35.38;11.23;;;8.10;90.10;;;;;;5084038;28;20035;-68
2021/11/18 04:59:21;;;;;;;30.67;10.93;;;8.10;90.20;;;;;;5068284;28;20090;-68
2021/11/18 05:01:47;;;;;;;27.77;10.57;;;8.10;90.20;;;;;;5082145;28;20058;-68
2021/11/18 05:04:13;;;;;;;25.83;11.35;;;8.10;90.20;;;;;;5068485;28;20112;-68
2021/11/18 05:06:39;;;;;;;27.85;10.80;;;8.10;90.20;;;;;;5070233;28;21564;-68
2021/11/18 05:09:08;;;;;;;27.42;10.60;;;8.00;90.20;;;;;;5086640;28;20024;-68
2021/11/18 05:11:34;;;;;;;28.73;10.75;;;8.10;90.20;;;;;;5081902;28;20047;-68
2021/11/18 05:13:59;;;;;;;24.48;10.38;;;8.10;90.20;;;;;;5067067;28;20044;-68
2021/11/18 05:16:25;;;;;;;27.65;11.10;;;8.10;90.20;;;;;;5087431;28;20030;-68
2021/11/18 05:18:51;;;;;;;26.80;10.85;;;8.10;90.20;;;;;;5067637;28;20036;-69
2021/11/18 05:21:21;;;;;;;20.60;10.43;;;8.10;90.20;;;;;;5088477;28;20127;-68
2021/11/18 05:23:48;;;;;;;23.67;10.07;;;8.10;90.20;;;;;;5078395;28;20028;-68
2021/11/18 05:26:18;;;;;;;26.25;10.00;;;8.10;90.20;;;;;;5085376;28;20032;-68
2021/11/18 05:28:44;;;;;;;22.30;9.20;;;8.10;90.20;;;;;;5086104;28;20103;-68
2021/11/18 05:31:10;;;;;;;24.02;10.07;;;8.20;90.20;;;;;;5084932;28;20032;-68
2021/11/18 05:33:37;;;;;;;22.88;9.90;;;8.20;90.20;;;;;;5085279;28;20030;-68
2021/11/18 05:36:03;;;;;;;30.13;11.10;;;8.20;90.20;;;;;;5087717;28;20283;-68
2021/11/18 05:38:29;;;;;;;19.95;9.45;;;8.20;90.20;;;;;;5086109;28;20439;-68
2021/11/18 05:40:55;;;;;;;33.88;11.35;;;8.20;90.10;;;;;;5088485;28;20424;-69
2021/11/18 05:43:22;;;;;;;28.38;12.95;;;8.20;90.10;;;;;;5086013;28;20050;-68
2021/11/18 05:45:48;;;;;;;30.50;11.32;;;8.20;90.10;;;;;;5086793;28;20099;-68
2021/11/18 05:48:16;;;;;;;25.80;11.35;;;8.20;90.10;;;;;;5086321;28;20115;-68
2021/11/18 05:50:50;;;;;;;27.13;11.05;;;8.20;90.10;;;;;;5087901;28;20016;-68
2021/11/18 05:53:22;;;;;;;24.60;10.25;;;8.20;90.10;;;;;;5067959;28;20028;-71
2021/11/18 05:55:47;;;;;;;31.90;12.10;;;8.20;90.10;;;;;;5087360;28;20016;-71
2021/11/18 05:58:14;;;;;;;23.23;10.52;;;8.20;90.00;;;;;;5086064;28;20055;-71
2021/11/18 06:00:40;;;;;;;31.42;11.73;;;8.20;90.00;;;;;;5068165;28;20032;-71
2021/11/18 06:03:05;;;;;;;25.67;11.32;;;8.20;90.10;;;;;;5067257;28;20394;-70
2021/11/18 06:05:32;;;;;;;23.38;10.88;;;8.20;90.00;;;;;;5052535;28;20036;-70
2021/11/18 06:07:58;;;;;;;25.45;11.35;;;8.20;90.00;;;;;;5087644;28;20095;-68
2021/11/18 06:10:27;;;;;;;25.05;10.38;;;8.20;90.00;;;;;;5070214;28;20032;-68
2021/11/18 06:12:52;;;;;;;29.10;10.90;;;8.30;90.00;;;;;;5090819;28;20024;-68
2021/11/18 06:15:18;;;;;;;26.58;10.88;;;8.30;90.00;;;;;;5106776;28;20514;-68
2021/11/18 06:17:44;;;;;;;25.17;10.82;;;8.30;90.00;;;;;;5078951;28;20482;-68
2021/11/18 06:20:12;;;;;;;27.35;10.60;;;8.30;90.00;;;;;;5091999;28;20032;-68
2021/11/18 06:22:39;;;;;;;29.92;10.98;;;8.30;90.00;;;;;;5091584;28;20032;-69
2021/11/18 06:25:07;;;;;;;22.90;11.38;;;8.30;89.90;;;;;;5091864;28;20028;-68
2021/11/18 06:27:36;;;;;;;28.10;11.13;;;8.30;90.00;;;;;;5091206;28;20079;-67
2021/11/18 06:30:03;;;;;;;29.40;11.65;;;8.30;90.00;;;;;;5090894;28;20047;-68
2021/11/18 06:32:29;;;;;;;33.15;11.00;;;8.30;90.20;;;;;;5091070;28;20028;-68
2021/11/18 06:34:57;;;;;;;35.40;12.68;;;8.30;89.90;;;;;;5091406;28;20418;-69
2021/11/18 06:37:23;;;;;;;33.30;11.90;;;8.30;89.90;;;;;;5072889;28;20474;-69
2021/11/18 06:39:48;;;;;;;25.63;11.13;;;8.30;89.90;;;;;;5091324;28;20020;-68
2021/11/18 06:42:14;;;;;;;36.00;13.05;;;8.30;90.00;;;;;;5104166;28;20086;-69
2021/11/18 06:44:41;;;;;;;27.95;11.02;;;8.30;90.00;;;;;;5091081;28;20517;-69
2021/11/18 06:47:07;;;;;;;28.55;11.93;;;8.30;90.00;;;;;;5091015;28;20020;-68
2021/11/18 06:49:34;;;;;;;31.75;11.18;;;8.30;90.00;;;;;;5091575;28;20052;-69
2021/11/18 06:52:00;;;;;;;32.13;13.15;;;8.30;90.00;;;;;;5091183;28;20074;-69
2021/11/18 06:54:26;;;;;;;31.60;11.35;;;8.30;90.00;;;;;;5092332;28;20747;-69
2021/11/18 06:56:51;;;;;;;35.70;12.57;;;8.30;90.00;;;;;;5102044;28;20028;-67
2021/11/18 06:59:17;;;;;;;31.73;11.88;;;8.30;90.00;;;;;;5084334;28;20033;-67
2021/11/18 07:01:43;;;;;;;32.78;11.90;;;8.40;90.00;;;;;;5090588;28;20036;-67
2021/11/18 07:04:10;;;;;;;37.97;11.93;;;8.40;90.00;;;;;;5037451;28;20094;-68
2021/11/18 07:06:38;;;;;;;30.48;11.93;;;8.40;90.00;;;;;;5076440;28;20028;-69
2021/11/18 07:09:05;;;;;;;29.67;11.80;;;8.40;90.00;;;;;;5089313;28;20041;-69
2021/11/18 07:11:31;;;;;;;33.85;12.20;;;8.50;90.00;;;;;;5089986;28;20489;-70
2021/11/18 07:13:57;;;;;;;34.72;11.80;;;8.40;90.00;;;;;;5065791;28;20048;-68
2021/11/18 07:16:24;;;;;;;38.42;12.40;;;8.40;89.90;;;;;;5090208;28;20028;-68
2021/11/18 07:18:50;;;;;;;36.13;12.50;;;8.50;90.00;;;;;;5071000;28;20443;-68
2021/11/18 07:21:16;;;;;;;34.95;11.75;;;8.40;90.00;;;;;;5086684;28;20398;-68
2021/11/18 07:23:43;;;;;;;29.33;11.73;;;8.40;90.00;;;;;;5089407;28;20016;-72
2021/11/18 07:26:10;;;;;;;31.05;11.95;;;8.50;90.00;;;;;;5087170;28;20378;-71
2021/11/18 07:28:38;;;;;;;32.83;11.82;;;8.40;90.00;;;;;;5081988;28;20021;-71
2021/11/18 07:31:04;;;;;;;33.63;11.25;;;8.40;90.00;;;;;;5087684;28;20024;-69
2021/11/18 07:33:31;;;;;;;25.42;10.68;;;8.50;90.00;;;;;;5066534;28;20042;-66
2021/11/18 07:35:58;;;;;;;31.98;11.65;;;8.50;90.00;;;;;;5085833;28;20024;-68
2021/11/18 07:38:26;;;;;;;37.10;12.07;;;8.50;90.00;;;;;;5085400;28;20028;-67
2021/11/18 07:40:53;;;;;;;32.33;11.52;;;8.50;90.00;;;;;;5085134;28;20012;-69
2021/11/18 07:43:22;;;;;;;26.55;10.90;;;8.50;90.00;;;;;;5067683;28;20023;-68
2021/11/18 07:45:49;;;;;;;33.88;11.95;;;8.50;90.00;;;;;;5085080;28;20103;-75
2021/11/18 07:48:16;;;;;;;30.52;12.40;;;8.50;90.00;;;;;;5086653;28;20462;-72
2021/11/18 07:50:44;;;;;;;33.15;11.95;;;8.50;89.90;;;;;;5090560;28;20024;-73
2021/11/18 07:53:10;;;;;;;30.08;11.30;;;8.50;90.00;;;;;;5085021;28;20441;-72
2021/11/18 07:55:36;;;;;;;36.70;14.05;;;8.50;90.00;;;;;;5071710;28;20039;-73
2021/11/18 07:58:02;;;;;;;33.25;12.57;;;8.50;89.90;;;;;;5091398;28;20036;-72
2021/11/18 08:00:28;;;;;;;34.95;12.90;;;8.50;90.00;;;;;;5089951;28;20398;-71
2021/11/18 08:02:54;;;;;;;35.03;12.43;;;8.50;89.90;;;;;;5090300;28;20036;-73
2021/11/18 08:05:20;;;;;;;35.35;12.95;;;8.50;89.90;;;;;;5086163;28;20079;-66
2021/11/18 08:07:46;;;;;;;33.45;12.13;;;8.50;89.90;;;;;;5052794;28;20138;-72
2021/11/18 08:10:13;;;;;;;28.85;11.02;;;8.50;89.90;;;;;;5089156;28;20495;-72
2021/11/18 08:12:39;;;;;;;36.45;13.10;;;8.50;89.90;;;;;;5082294;28;20028;-72
2021/11/18 08:15:08;;;;;;;35.65;13.80;;;8.50;89.90;;;;;;5081909;28;20040;-72
2021/11/18 08:17:34;;;;;;;31.05;12.43;;;8.50;89.90;;;;;;5083620;28;20051;-72
2021/11/18 08:20:00;;;;;;;40.20;13.52;;;8.50;89.90;;;;;;5083662;28;20078;-70
2021/11/18 08:22:27;;;;;;;36.35;14.75;;;8.50;89.80;;;;;;5082724;28;20044;-72
2021/11/18 08:24:53;;;;;;;28.92;11.57;;;8.60;89.90;;;;;;5089833;28;20082;-70
2021/11/18 08:27:19;;;;;;;28.08;10.50;;;8.60;89.90;;;;;;5086860;28;20032;-70
2021/11/18 08:29:47;;;;;;;31.15;12.82;;;8.60;89.90;;;;;;5084711;28;20044;-71
2021/11/18 08:32:14;;;;;;;37.78;13.70;;;8.60;89.80;;;;;;5083538;28;20032;-70
2021/11/18 08:34:40;;;;;;;31.60;12.23;;;8.60;89.70;;;;;;5084867;28;20039;-69
2021/11/18 08:37:07;;;;;;;28.02;12.70;;;8.60;89.70;;;;;;5080109;28;20363;-72
2021/11/18 08:39:34;;;;;;;42.53;15.68;;;8.60;89.70;;;;;;5077206;28;20033;-72
2021/11/18 08:42:03;;;;;;;38.72;14.52;;;8.60;89.70;;;;;;5079320;28;20434;-72
2021/11/18 08:44:31;;;;;;;35.45;14.38;;;8.60;89.70;;;;;;5086737;28;20032;-70
2021/11/18 08:46:58;;;;;;;33.60;15.05;;;8.60;89.70;;;;;;5084261;28;20032;-69
2021/11/18 08:49:24;;;;;;;36.63;13.82;;;8.70;89.70;;;;;;5086190;28;20031;-69
2021/11/18 08:51:52;;;;;;;35.72;14.07;;;8.70;89.70;;;;;;5088200;28;20016;-68
2021/11/18 08:54:23;;;;;;;34.25;13.75;;;8.70;89.70;;;;;;5087589;28;20493;-69
2021/11/18 08:56:51;;;;;;;41.28;15.55;;;8.70;89.60;;;;;;5084700;28;20063;-68
2021/11/18 08:59:18;;;;;;;36.30;14.30;;;8.80;89.50;;;;;;5087614;28;20032;-69
2021/11/18 09:01:48;;;;;;;46.05;15.13;;;8.80;89.60;;;;;;5087842;28;20561;-69
2021/11/18 09:04:17;;;;;;;37.58;14.85;;;8.80;89.50;;;;;;5087292;28;20497;-69
2021/11/18 09:06:43;;;;;;;39.40;14.57;;;8.80;89.50;;;;;;5085495;28;20090;-71
2021/11/18 09:09:11;;;;;;;38.15;14.18;;;8.90;89.40;;;;;;5087171;28;20439;-69
2021/11/18 09:11:38;;;;;;;38.60;15.77;;;8.90;89.50;;;;;;5087311;28;20386;-70
2021/11/18 09:14:04;;;;;;;34.90;14.70;;;8.90;89.40;;;;;;5065014;28;20047;-70
2021/11/18 09:16:32;;;;;;;42.25;14.98;;;9.00;89.40;;;;;;5064464;28;20435;-69
2021/11/18 09:18:58;;;;;;;39.30;14.95;;;9.00;89.30;;;;;;5067257;28;20039;-69
2021/11/18 09:21:25;;;;;;;35.08;13.70;;;9.00;89.90;;;;;;5067190;28;20552;-69
2021/11/18 09:23:59;;;;;;;33.45;14.13;;;9.10;89.20;;;;;;5061850;28;20116;-71
2021/11/18 09:26:28;;;;;;;33.65;14.05;;;9.20;89.20;;;;;;5060035;28;20124;-71
2021/11/18 09:28:54;;;;;;;34.58;13.98;;;9.30;89.10;;;;;;5064293;28;20035;-69
2021/11/18 09:31:22;;;;;;;39.00;15.15;;;9.30;88.70;;;;;;5067051;28;20043;-69
2021/11/18 09:33:49;;;;;;;33.83;14.18;;;9.40;88.60;;;;;;5065061;28;20408;-69
2021/11/18 09:36:15;;;;;;;34.90;13.63;;;9.50;88.60;;;;;;5063299;28;20020;-69
2021/11/18 09:38:44;;;;;;;30.80;12.80;;;9.50;88.30;;;;;;5047769;28;20123;-70
2021/11/18 09:41:25;;;;;;;39.40;14.98;;;9.60;88.20;;;;;;5065859;28;20082;-71
2021/11/18 09:44:28;;;;;;;32.67;13.30;;;9.70;87.80;;;;;;5066276;28;20039;-70
2021/11/18 09:47:14;;;;;;;32.97;13.30;;;9.80;87.80;;;;;;5063203;28;20493;-71
2021/11/18 09:50:04;;;;;;;38.42;13.40;;;9.80;87.50;;;;;;5053820;28;20455;-70
2021/11/18 09:52:33;;;;;;;44.35;14.85;;;9.90;87.20;;;;;;5049990;28;20032;-71
2021/11/18 09:55:18;;;;;;;39.65;14.82;;;10.00;86.60;;;;;;5067041;28;20095;-71
2021/11/18 09:58:03;;;;;;;33.67;13.15;;;10.00;86.20;;;;;;5071059;28;20487;-69
2021/11/18 10:00:53;;;;;;;35.10;12.98;;;10.00;86.50;;;;;;5068877;28;20144;-69
2021/11/18 10:03:34;;;;;;;36.10;16.00;;;10.10;86.30;;;;;;5068663;28;20032;-69
2021/11/18 10:06:08;;;;;;;40.03;12.65;;;10.20;85.90;;;;;;5052251;28;20025;-70
2021/11/18 10:08:45;;;;;;;38.03;13.23;;;10.30;85.60;;;;;;5069629;28;20093;-70
2021/11/18 10:11:30;;;;;;;32.70;12.73;;;10.30;85.30;;;;;;5070774;28;20029;-70
2021/11/18 10:14:06;;;;;;;33.92;12.80;;;10.30;85.10;;;;;;5069043;28;20052;-70
2021/11/18 10:16:44;;;;;;;25.10;11.23;;;10.40;85.20;;;;;;5090138;28;20036;-70
2021/11/18 10:19:10;;;;;;;31.77;11.73;;;10.60;85.70;;;;;;5090034;28;20045;-70
2021/11/18 10:21:40;;;;;;;36.90;11.45;;;10.80;85.50;;;;;;5090092;28;20474;-70
2021/11/18 10:24:22;;;;;;;29.13;10.85;;;11.00;84.30;;;;;;5082450;28;20016;-71
2021/11/18 10:26:52;;;;;;;28.63;10.27;;;11.20;83.30;;;;;;5089292;28;20024;-70
2021/11/18 10:29:24;;;;;;;25.92;10.05;;;11.60;82.30;;;;;;5085865;28;20488;-70
2021/11/18 10:31:50;;;;;;;28.55;9.73;;;12.00;80.30;;;;;;5078299;28;20482;-70
2021/11/18 10:34:30;;;;;;;29.38;9.40;;;12.30;78.90;;;;;;5083563;28;20101;-72
2021/11/18 10:37:22;;;;;;;35.75;10.70;;;12.30;77.60;;;;;;5084358;28;20398;-73
2021/11/18 10:40:05;;;;;;;26.63;10.05;;;12.60;76.20;;;;;;5088040;28;20028;-72
2021/11/18 10:42:42;;;;;;;29.23;9.60;;;13.20;75.90;;;;;;5088661;28;20123;-73
2021/11/18 10:45:13;;;;;;;24.63;10.25;;;13.80;73.10;;;;;;5069511;28;20030;-73
2021/11/18 10:47:51;;;;;;;29.55;10.52;;;14.00;71.80;;;;;;5063228;28;20082;-73
2021/11/18 10:50:33;;;;;;;33.60;11.30;;;13.90;70.50;;;;;;5081993;28;20775;-73
2021/11/18 10:53:29;;;;;;;26.58;9.82;;;13.40;71.00;;;;;;5086329;28;20108;-73
2021/11/18 10:56:07;;;;;;;33.63;10.23;;;12.90;72.80;;;;;;5039116;28;20135;-73
2021/11/18 10:58:39;;;;;;;27.40;9.32;;;12.60;73.70;;;;;;5083559;28;20073;-73
2021/11/18 11:01:26;;;;;;;32.70;10.00;;;12.60;74.40;;;;;;5084319;28;20383;-74
2021/11/18 11:04:02;;;;;;;27.77;10.02;;;12.90;74.30;;;;;;5087241;28;20016;-74
2021/11/18 11:06:43;;;;;;;28.23;10.68;;;13.30;72.70;;;;;;5086591;28;20114;-74
2021/11/18 11:09:09;;;;;;;28.10;9.95;;;13.80;70.60;;;;;;5090309;28;20028;-71
2021/11/18 11:11:54;;;;;;;29.60;10.32;;;14.40;69.00;;;;;;5089990;28;20039;-72
2021/11/18 11:14:57;;;;;;;29.50;9.93;;;15.00;67.70;;;;;;5088588;28;20380;-74
2021/11/18 11:17:50;;;;;;;28.38;8.85;;;15.80;66.10;;;;;;5090264;28;20020;-70
2021/11/18 11:20:22;;;;;;;32.28;10.70;;;16.40;64.20;;;;;;5086380;28;20040;-71
2021/11/18 11:22:57;;;;;;;26.58;9.23;;;16.70;61.20;;;;;;5066787;28;20086;-70
2021/11/18 11:25:47;;;;;;;27.20;9.57;;;16.80;60.90;;;;;;5073272;28;20031;-71
2021/11/18 11:28:34;;;;;;;22.45;8.82;;;16.80;60.90;;;;;;5067504;28;20074;-71
2021/11/18 11:31:14;;;;;;;24.80;8.48;;;16.70;60.00;;;;;;5088937;28;20028;-72
2021/11/18 11:34:06;;;;;;;24.42;8.38;;;16.60;61.20;;;;;;5084668;28;20372;-71
2021/11/18 11:36:37;;;;;;;18.08;7.72;;;16.80;61.00;;;;;;5086596;28;20039;-71
2021/11/18 11:39:18;;;;;;;30.30;10.00;;;16.90;61.20;;;;;;5069659;28;20028;-72
2021/11/18 11:42:22;;;;;;;21.85;8.25;;;17.00;59.70;;;;;;5066485;28;20423;-72
2021/11/18 11:44:56;;;;;;;21.20;7.40;;;17.00;59.50;;;;;;5082709;28;20848;-71
2021/11/18 11:47:53;;;;;;;25.25;7.63;;;17.00;58.90;;;;;;5088175;28;20032;-70
2021/11/18 11:50:33;;;;;;;31.05;8.95;;;17.00;59.20;;;;;;5070327;28;20032;-71
2021/11/18 11:53:13;;;;;;;22.27;7.70;;;17.20;58.50;;;;;;5064838;28;20083;-72
2021/11/18 11:55:50;;;;;;;19.70;7.13;;;17.40;58.60;;;;;;5087466;28;20027;-72
2021/11/18 11:58:28;;;;;;;24.92;8.15;;;17.80;58.50;;;;;;5088216;28;20526;-71
2021/11/18 12:01:24;;;;;;;21.00;7.10;;;18.30;57.10;;;;;;5081529;28;20454;-71
2021/11/18 12:04:33;;;;;;;20.15;6.85;;;18.60;55.70;;;;;;5088508;28;20458;-72
2021/11/18 12:07:23;;;;;;;24.52;7.32;;;19.00;54.40;;;;;;5086179;28;20032;-71
2021/11/18 12:09:49;;;;;;;21.42;6.95;;;19.30;52.80;;;;;;5087582;28;20551;-71
2021/11/18 12:12:36;;;;;;;14.98;5.35;;;19.30;51.30;;;;;;5088365;28;20083;-71
2021/11/18 12:15:12;;;;;;;23.70;7.25;;;19.20;52.50;;;;;;5068531;28;20052;-71
2021/11/18 12:17:43;;;;;;;22.08;7.15;;;19.30;51.40;;;;;;5081779;28;20081;-71
2021/11/18 12:20:17;;;;;;;20.38;6.88;;;19.20;51.50;;;;;;5086738;28;20028;-71
2021/11/18 12:22:54;;;;;;;20.20;5.68;;;18.90;51.70;;;;;;5086129;28;20024;-71
2021/11/18 12:25:40;;;;;;;18.88;6.43;;;18.70;52.70;;;;;;5086665;28;20031;-71
2021/11/18 12:28:12;;;;;;;19.00;6.38;;;18.40;53.20;;;;;;5082574;28;20491;-71
2021/11/18 12:30:47;;;;;;;22.58;6.22;;;18.00;54.30;;;;;;5076863;28;20032;-71
2021/11/18 12:33:18;;;;;;;20.08;7.15;;;17.90;54.80;;;;;;5082514;28;20048;-71
2021/11/18 12:36:06;;;;;;;27.23;6.77;;;18.00;54.80;;;;;;5063213;28;20032;-71
2021/11/18 12:38:59;;;;;;;25.45;7.13;;;18.00;54.10;;;;;;5085365;28;20160;-71
2021/11/18 12:41:36;;;;;;;22.63;6.47;;;17.80;54.60;;;;;;5083602;28;20081;-71
2021/11/18 12:44:29;;;;;;;24.38;6.25;;;17.40;55.50;;;;;;5087329;28;20534;-71
2021/11/18 12:47:24;;;;;;;21.58;6.70;;;17.10;56.80;;;;;;5084123;28;20030;-72
2021/11/18 12:49:53;;;;;;;19.63;6.15;;;16.90;57.80;;;;;;5030160;28;20041;-71
2021/11/18 12:52:26;;;;;;;21.08;6.72;;;16.70;57.70;;;;;;5067891;28;20020;-73
2021/11/18 12:55:33;;;;;;;23.60;7.15;;;16.60;58.20;;;;;;5065404;28;20024;-73